sensor_id;sensor_type;location;lat;lon;timestamp;temperature;humidity
22996;DHT22;11664;49.774;8.650;2023-07-31T00:02:08;18.50;99.90
22996;DHT22;11664;49.774;8.650;2023-07-31T00:04:34;18.60;99.90
22996;DHT22;11664;49.774;8.650;2023-07-31T00:07:05;18.60;99.90
22996;DHT22;11664;49.774;8.650;2023-07-31T00:09:34;18.60;99.90
22996;DHT22;11664;49.774;8.650;2023-07-31T00:12:03;18.60;99.90
22996;DHT22;11664;49.774;8.650;2023-07-31T00:14:32;18.50;99.90
22996;DHT22;11664;49.774;8.650;2023-07-31T00:16:57;18.50;99.90
22996;DHT22;11664;49.774;8.650;2023-07-31T00:19:41;18.60;99.90
22996;DHT22;11664;49.774;8.650;2023-07-31T00:22:35;18.60;99.90
22996;DHT22;11664;49.774;8.650;2023-07-31T00:25:01;18.60;99.90
22996;DHT22;11664;49.774;8.650;2023-07-31T00:27:30;18.70;99.90
22996;DHT22;11664;49.774;8.650;2023-07-31T00:30:05;18.80;99.90
22996;DHT22;11664;49.774;8.650;2023-07-31T00:32:31;18.80;99.90
22996;DHT22;11664;49.774;8.650;2023-07-31T00:34:56;18.80;99.90
22996;DHT22;11664;49.774;8.650;2023-07-31T00:37:22;18.90;99.90
22996;DHT22;11664;49.774;8.650;2023-07-31T00:39:50;19.00;99.90
22996;DHT22;11664;49.774;8.650;2023-07-31T00:42:22;19.00;99.90
22996;DHT22;11664;49.774;8.650;2023-07-31T00:44:48;19.00;99.90
22996;DHT22;11664;49.774;8.650;2023-07-31T00:47:22;19.10;99.90
22996;DHT22;11664;49.774;8.650;2023-07-31T00:49:54;19.00;99.90
22996;DHT22;11664;49.774;8.650;2023-07-31T00:52:20;19.00;99.90
22996;DHT22;11664;49.774;8.650;2023-07-31T00:54:49;19.00;99.90
22996;DHT22;11664;49.774;8.650;2023-07-31T00:57:15;19.10;99.90
22996;DHT22;11664;49.774;8.650;2023-07-31T00:59:43;19.00;99.90
22996;DHT22;11664;49.774;8.650;2023-07-31T01:02:09;19.00;99.90
22996;DHT22;11664;49.774;8.650;2023-07-31T01:04:43;19.00;99.90
22996;DHT22;11664;49.774;8.650;2023-07-31T01:10:33;19.00;99.90
22996;DHT22;11664;49.774;8.650;2023-07-31T01:13:28;19.00;99.90
22996;DHT22;11664;49.774;8.650;2023-07-31T01:16:00;19.00;99.90
22996;DHT22;11664;49.774;8.650;2023-07-31T01:18:26;19.00;99.90
22996;DHT22;11664;49.774;8.650;2023-07-31T01:21:06;19.10;99.90
22996;DHT22;11664;49.774;8.650;2023-07-31T01:26:41;19.10;99.90
22996;DHT22;11664;49.774;8.650;2023-07-31T01:29:23;19.00;99.90
22996;DHT22;11664;49.774;8.650;2023-07-31T01:31:53;19.00;99.90
22996;DHT22;11664;49.774;8.650;2023-07-31T01:34:21;19.00;99.90
22996;DHT22;11664;49.774;8.650;2023-07-31T01:36:53;19.00;99.90
22996;DHT22;11664;49.774;8.650;2023-07-31T01:39:24;18.90;99.90
22996;DHT22;11664;49.774;8.650;2023-07-31T01:41:51;18.90;99.90
22996;DHT22;11664;49.774;8.650;2023-07-31T01:44:22;18.90;99.90
22996;DHT22;11664;49.774;8.650;2023-07-31T01:46:48;19.00;99.90
22996;DHT22;11664;49.774;8.650;2023-07-31T01:49:13;19.00;99.90
22996;DHT22;11664;49.774;8.650;2023-07-31T01:51:39;19.00;99.90
22996;DHT22;11664;49.774;8.650;2023-07-31T01:54:11;19.00;99.90
22996;DHT22;11664;49.774;8.650;2023-07-31T01:56:36;18.90;99.90
22996;DHT22;11664;49.774;8.650;2023-07-31T01:59:08;18.90;99.90
22996;DHT22;11664;49.774;8.650;2023-07-31T02:01:33;18.90;99.90
22996;DHT22;11664;49.774;8.650;2023-07-31T02:03:59;18.80;99.90
22996;DHT22;11664;49.774;8.650;2023-07-31T02:06:24;18.80;99.90
22996;DHT22;11664;49.774;8.650;2023-07-31T02:08:53;18.80;99.90
22996;DHT22;11664;49.774;8.650;2023-07-31T02:11:28;18.70;99.90
22996;DHT22;11664;49.774;8.650;2023-07-31T02:14:00;18.70;99.90
22996;DHT22;11664;49.774;8.650;2023-07-31T02:16:28;18.70;99.90
22996;DHT22;11664;49.774;8.650;2023-07-31T02:19:03;18.60;99.90
22996;DHT22;11664;49.774;8.650;2023-07-31T02:21:37;18.60;99.90
22996;DHT22;11664;49.774;8.650;2023-07-31T02:24:06;18.60;99.90
22996;DHT22;11664;49.774;8.650;2023-07-31T02:26:32;18.60;99.90
22996;DHT22;11664;49.774;8.650;2023-07-31T02:29:00;18.60;99.90
22996;DHT22;11664;49.774;8.650;2023-07-31T02:31:26;18.50;99.90
22996;DHT22;11664;49.774;8.650;2023-07-31T02:33:55;18.60;99.90
22996;DHT22;11664;49.774;8.650;2023-07-31T02:36:23;18.50;99.90
22996;DHT22;11664;49.774;8.650;2023-07-31T02:38:48;18.50;99.90
22996;DHT22;11664;49.774;8.650;2023-07-31T02:41:14;18.50;99.90
22996;DHT22;11664;49.774;8.650;2023-07-31T02:43:49;18.40;99.90
22996;DHT22;11664;49.774;8.650;2023-07-31T02:46:14;18.40;99.90
22996;DHT22;11664;49.774;8.650;2023-07-31T02:48:43;18.40;99.90
22996;DHT22;11664;49.774;8.650;2023-07-31T02:51:11;18.40;99.90
22996;DHT22;11664;49.774;8.650;2023-07-31T02:53:46;18.40;99.90
22996;DHT22;11664;49.774;8.650;2023-07-31T02:56:14;18.30;99.90
22996;DHT22;11664;49.774;8.650;2023-07-31T02:58:43;18.40;99.90
22996;DHT22;11664;49.774;8.650;2023-07-31T03:01:08;18.30;99.90
22996;DHT22;11664;49.774;8.650;2023-07-31T03:03:34;18.30;99.90
22996;DHT22;11664;49.774;8.650;2023-07-31T03:06:06;18.30;99.90
22996;DHT22;11664;49.774;8.650;2023-07-31T03:08:31;18.20;99.90
22996;DHT22;11664;49.774;8.650;2023-07-31T03:11:03;18.10;99.90
22996;DHT22;11664;49.774;8.650;2023-07-31T03:13:35;18.10;99.90
22996;DHT22;11664;49.774;8.650;2023-07-31T03:16:00;18.00;99.90
22996;DHT22;11664;49.774;8.650;2023-07-31T03:18:32;18.00;99.90
22996;DHT22;11664;49.774;8.650;2023-07-31T03:21:02;18.10;99.90
22996;DHT22;11664;49.774;8.650;2023-07-31T03:23:31;18.00;99.90
22996;DHT22;11664;49.774;8.650;2023-07-31T03:26:18;18.00;99.90
22996;DHT22;11664;49.774;8.650;2023-07-31T03:28:49;18.10;99.90
22996;DHT22;11664;49.774;8.650;2023-07-31T03:31:15;18.10;99.90
22996;DHT22;11664;49.774;8.650;2023-07-31T03:33:52;18.10;99.90
22996;DHT22;11664;49.774;8.650;2023-07-31T03:36:39;18.10;99.90
22996;DHT22;11664;49.774;8.650;2023-07-31T03:39:05;18.10;99.90
22996;DHT22;11664;49.774;8.650;2023-07-31T03:41:33;18.20;99.90
22996;DHT22;11664;49.774;8.650;2023-07-31T03:44:02;18.10;99.90
22996;DHT22;11664;49.774;8.650;2023-07-31T03:46:31;18.00;99.90
22996;DHT22;11664;49.774;8.650;2023-07-31T03:48:56;18.00;99.90
22996;DHT22;11664;49.774;8.650;2023-07-31T03:51:22;18.00;99.90
22996;DHT22;11664;49.774;8.650;2023-07-31T03:53:48;18.10;99.90
22996;DHT22;11664;49.774;8.650;2023-07-31T03:56:13;18.00;99.90
22996;DHT22;11664;49.774;8.650;2023-07-31T03:58:39;18.10;99.90
22996;DHT22;11664;49.774;8.650;2023-07-31T04:01:07;18.10;99.90
22996;DHT22;11664;49.774;8.650;2023-07-31T04:03:36;18.10;99.90
22996;DHT22;11664;49.774;8.650;2023-07-31T04:06:08;18.10;99.90
22996;DHT22;11664;49.774;8.650;2023-07-31T04:08:33;18.10;99.90
22996;DHT22;11664;49.774;8.650;2023-07-31T04:11:08;18.00;99.90
22996;DHT22;11664;49.774;8.650;2023-07-31T04:13:40;18.00;99.90
22996;DHT22;11664;49.774;8.650;2023-07-31T04:16:05;18.10;99.90
22996;DHT22;11664;49.774;8.650;2023-07-31T04:18:31;18.10;99.90
22996;DHT22;11664;49.774;8.650;2023-07-31T04:20:57;18.10;99.90
22996;DHT22;11664;49.774;8.650;2023-07-31T04:23:30;18.10;99.90
22996;DHT22;11664;49.774;8.650;2023-07-31T04:25:56;18.10;99.90
22996;DHT22;11664;49.774;8.650;2023-07-31T04:28:31;18.10;99.90
22996;DHT22;11664;49.774;8.650;2023-07-31T04:31:09;18.10;99.90
22996;DHT22;11664;49.774;8.650;2023-07-31T04:33:34;18.20;99.90
22996;DHT22;11664;49.774;8.650;2023-07-31T04:36:04;18.20;99.90
22996;DHT22;11664;49.774;8.650;2023-07-31T04:38:30;18.20;99.90
22996;DHT22;11664;49.774;8.650;2023-07-31T04:41:02;18.20;99.90
22996;DHT22;11664;49.774;8.650;2023-07-31T04:43:30;18.20;99.90
22996;DHT22;11664;49.774;8.650;2023-07-31T04:45:56;18.30;99.90
22996;DHT22;11664;49.774;8.650;2023-07-31T04:48:24;18.20;99.90
22996;DHT22;11664;49.774;8.650;2023-07-31T04:51:09;18.30;99.90
22996;DHT22;11664;49.774;8.650;2023-07-31T04:53:37;18.30;99.90
22996;DHT22;11664;49.774;8.650;2023-07-31T04:56:09;18.30;99.90
22996;DHT22;11664;49.774;8.650;2023-07-31T04:58:41;18.30;99.90
22996;DHT22;11664;49.774;8.650;2023-07-31T05:01:13;18.30;99.90
22996;DHT22;11664;49.774;8.650;2023-07-31T05:03:44;18.30;99.90
22996;DHT22;11664;49.774;8.650;2023-07-31T05:06:10;18.30;99.90
22996;DHT22;11664;49.774;8.650;2023-07-31T05:08:45;18.30;99.90
22996;DHT22;11664;49.774;8.650;2023-07-31T05:11:10;18.30;99.90
22996;DHT22;11664;49.774;8.650;2023-07-31T05:13:41;18.30;99.90
22996;DHT22;11664;49.774;8.650;2023-07-31T05:16:10;18.40;99.90
22996;DHT22;11664;49.774;8.650;2023-07-31T05:18:54;18.40;99.90
22996;DHT22;11664;49.774;8.650;2023-07-31T05:21:29;18.40;99.90
22996;DHT22;11664;49.774;8.650;2023-07-31T05:23:54;18.40;99.90
22996;DHT22;11664;49.774;8.650;2023-07-31T05:26:20;18.50;99.90
22996;DHT22;11664;49.774;8.650;2023-07-31T05:28:48;18.50;99.90
22996;DHT22;11664;49.774;8.650;2023-07-31T05:31:14;18.50;99.90
22996;DHT22;11664;49.774;8.650;2023-07-31T05:33:46;18.40;99.90
22996;DHT22;11664;49.774;8.650;2023-07-31T05:36:11;18.50;99.90
22996;DHT22;11664;49.774;8.650;2023-07-31T05:38:55;18.50;99.90
22996;DHT22;11664;49.774;8.650;2023-07-31T05:41:24;18.50;99.90
22996;DHT22;11664;49.774;8.650;2023-07-31T05:43:49;18.50;99.90
22996;DHT22;11664;49.774;8.650;2023-07-31T05:46:15;18.50;99.90
22996;DHT22;11664;49.774;8.650;2023-07-31T05:48:42;18.50;99.90
22996;DHT22;11664;49.774;8.650;2023-07-31T05:51:11;18.50;99.90
22996;DHT22;11664;49.774;8.650;2023-07-31T05:53:40;18.50;99.90
22996;DHT22;11664;49.774;8.650;2023-07-31T05:56:09;18.60;99.90
22996;DHT22;11664;49.774;8.650;2023-07-31T05:58:37;18.80;99.90
22996;DHT22;11664;49.774;8.650;2023-07-31T06:01:09;18.60;99.90
22996;DHT22;11664;49.774;8.650;2023-07-31T06:03:37;18.60;99.90
22996;DHT22;11664;49.774;8.650;2023-07-31T06:06:06;18.60;99.90
22996;DHT22;11664;49.774;8.650;2023-07-31T06:08:37;18.60;99.90
22996;DHT22;11664;49.774;8.650;2023-07-31T06:11:09;18.60;99.90
22996;DHT22;11664;49.774;8.650;2023-07-31T06:13:40;18.70;99.90
22996;DHT22;11664;49.774;8.650;2023-07-31T06:16:06;18.90;99.90
22996;DHT22;11664;49.774;8.650;2023-07-31T06:18:34;19.00;99.90
22996;DHT22;11664;49.774;8.650;2023-07-31T06:21:09;19.00;99.90
22996;DHT22;11664;49.774;8.650;2023-07-31T06:23:36;19.00;99.90
22996;DHT22;11664;49.774;8.650;2023-07-31T06:26:10;19.10;99.90
22996;DHT22;11664;49.774;8.650;2023-07-31T06:28:45;19.20;99.90
22996;DHT22;11664;49.774;8.650;2023-07-31T06:31:13;19.30;99.90
22996;DHT22;11664;49.774;8.650;2023-07-31T06:33:54;19.30;99.90
22996;DHT22;11664;49.774;8.650;2023-07-31T06:36:20;19.30;99.90
22996;DHT22;11664;49.774;8.650;2023-07-31T06:38:46;19.40;99.90
22996;DHT22;11664;49.774;8.650;2023-07-31T06:41:18;19.60;99.90
22996;DHT22;11664;49.774;8.650;2023-07-31T06:43:43;19.60;99.90
22996;DHT22;11664;49.774;8.650;2023-07-31T06:46:18;19.80;99.90
22996;DHT22;11664;49.774;8.650;2023-07-31T06:48:44;19.70;99.90
22996;DHT22;11664;49.774;8.650;2023-07-31T06:51:09;19.80;99.90
22996;DHT22;11664;49.774;8.650;2023-07-31T06:53:35;19.80;99.90
22996;DHT22;11664;49.774;8.650;2023-07-31T06:56:00;19.70;99.90
22996;DHT22;11664;49.774;8.650;2023-07-31T06:58:26;19.70;99.90
22996;DHT22;11664;49.774;8.650;2023-07-31T07:00:51;19.80;99.90
22996;DHT22;11664;49.774;8.650;2023-07-31T07:03:23;19.70;99.90
22996;DHT22;11664;49.774;8.650;2023-07-31T07:05:51;19.70;99.90
22996;DHT22;11664;49.774;8.650;2023-07-31T07:08:20;19.60;99.90
22996;DHT22;11664;49.774;8.650;2023-07-31T07:10:51;19.50;99.90
22996;DHT22;11664;49.774;8.650;2023-07-31T07:13:17;19.70;99.90
22996;DHT22;11664;49.774;8.650;2023-07-31T07:15:50;19.80;99.90
22996;DHT22;11664;49.774;8.650;2023-07-31T07:18:22;19.90;99.90
22996;DHT22;11664;49.774;8.650;2023-07-31T07:20:50;20.20;99.90
22996;DHT22;11664;49.774;8.650;2023-07-31T07:23:16;20.50;99.90
22996;DHT22;11664;49.774;8.650;2023-07-31T07:25:45;20.60;99.90
22996;DHT22;11664;49.774;8.650;2023-07-31T07:28:14;20.80;99.90
22996;DHT22;11664;49.774;8.650;2023-07-31T07:30:40;20.90;99.90
22996;DHT22;11664;49.774;8.650;2023-07-31T07:33:15;21.00;99.90
22996;DHT22;11664;49.774;8.650;2023-07-31T07:35:40;20.80;99.90
22996;DHT22;11664;49.774;8.650;2023-07-31T07:38:14;20.60;99.90
22996;DHT22;11664;49.774;8.650;2023-07-31T07:40:40;20.40;99.90
22996;DHT22;11664;49.774;8.650;2023-07-31T07:43:08;20.30;99.90
22996;DHT22;11664;49.774;8.650;2023-07-31T07:45:40;20.40;99.90
22996;DHT22;11664;49.774;8.650;2023-07-31T07:48:09;20.40;99.90
22996;DHT22;11664;49.774;8.650;2023-07-31T07:50:34;20.40;99.90
22996;DHT22;11664;49.774;8.650;2023-07-31T07:53:08;20.50;99.90
22996;DHT22;11664;49.774;8.650;2023-07-31T07:55:46;20.50;99.90
22996;DHT22;11664;49.774;8.650;2023-07-31T07:58:17;20.40;99.90
22996;DHT22;11664;49.774;8.650;2023-07-31T08:00:49;20.30;99.90
22996;DHT22;11664;49.774;8.650;2023-07-31T08:03:15;20.10;99.90
22996;DHT22;11664;49.774;8.650;2023-07-31T08:05:42;20.00;99.90
22996;DHT22;11664;49.774;8.650;2023-07-31T08:08:08;19.90;99.90
22996;DHT22;11664;49.774;8.650;2023-07-31T08:10:39;20.10;99.90
22996;DHT22;11664;49.774;8.650;2023-07-31T08:13:05;20.10;99.90
22996;DHT22;11664;49.774;8.650;2023-07-31T08:15:30;20.30;99.90
22996;DHT22;11664;49.774;8.650;2023-07-31T08:17:59;20.50;99.90
22996;DHT22;11664;49.774;8.650;2023-07-31T08:20:24;20.40;99.90
22996;DHT22;11664;49.774;8.650;2023-07-31T08:22:57;20.80;99.90
22996;DHT22;11664;49.774;8.650;2023-07-31T08:25:25;21.00;99.90
22996;DHT22;11664;49.774;8.650;2023-07-31T08:27:53;21.10;99.90
22996;DHT22;11664;49.774;8.650;2023-07-31T08:30:22;20.90;99.90
22996;DHT22;11664;49.774;8.650;2023-07-31T08:33:03;20.80;99.90
22996;DHT22;11664;49.774;8.650;2023-07-31T08:35:36;21.20;99.90
22996;DHT22;11664;49.774;8.650;2023-07-31T08:38:01;21.70;99.90
22996;DHT22;11664;49.774;8.650;2023-07-31T08:40:27;21.70;99.90
22996;DHT22;11664;49.774;8.650;2023-07-31T08:42:56;22.10;99.90
22996;DHT22;11664;49.774;8.650;2023-07-31T08:45:28;22.20;99.90
22996;DHT22;11664;49.774;8.650;2023-07-31T08:47:55;21.80;99.90
22996;DHT22;11664;49.774;8.650;2023-07-31T08:50:21;22.10;99.90
22996;DHT22;11664;49.774;8.650;2023-07-31T08:52:51;22.30;99.90
22996;DHT22;11664;49.774;8.650;2023-07-31T08:55:17;22.00;99.90
22996;DHT22;11664;49.774;8.650;2023-07-31T08:57:52;22.00;99.90
22996;DHT22;11664;49.774;8.650;2023-07-31T09:00:24;21.70;99.90
22996;DHT22;11664;49.774;8.650;2023-07-31T09:03:12;21.60;99.90
22996;DHT22;11664;49.774;8.650;2023-07-31T09:05:39;21.80;99.90
22996;DHT22;11664;49.774;8.650;2023-07-31T09:08:19;22.00;99.90
22996;DHT22;11664;49.774;8.650;2023-07-31T09:10:49;22.00;99.90
22996;DHT22;11664;49.774;8.650;2023-07-31T09:13:37;22.00;99.90
22996;DHT22;11664;49.774;8.650;2023-07-31T09:16:12;22.00;99.90
22996;DHT22;11664;49.774;8.650;2023-07-31T09:18:56;21.50;99.90
22996;DHT22;11664;49.774;8.650;2023-07-31T09:21:25;21.50;99.90
22996;DHT22;11664;49.774;8.650;2023-07-31T09:23:52;21.60;99.90
22996;DHT22;11664;49.774;8.650;2023-07-31T09:26:38;21.40;99.90
22996;DHT22;11664;49.774;8.650;2023-07-31T09:29:05;21.50;99.90
22996;DHT22;11664;49.774;8.650;2023-07-31T09:31:43;21.60;99.90
22996;DHT22;11664;49.774;8.650;2023-07-31T09:34:09;21.70;99.90
22996;DHT22;11664;49.774;8.650;2023-07-31T09:36:49;22.00;99.90
22996;DHT22;11664;49.774;8.650;2023-07-31T09:39:17;21.80;99.90
22996;DHT22;11664;49.774;8.650;2023-07-31T09:41:44;21.70;99.90
22996;DHT22;11664;49.774;8.650;2023-07-31T09:44:13;21.80;99.90
22996;DHT22;11664;49.774;8.650;2023-07-31T09:46:39;21.90;99.90
22996;DHT22;11664;49.774;8.650;2023-07-31T09:49:11;21.90;99.90
22996;DHT22;11664;49.774;8.650;2023-07-31T09:51:41;22.00;99.90
22996;DHT22;11664;49.774;8.650;2023-07-31T09:54:17;21.80;99.90
22996;DHT22;11664;49.774;8.650;2023-07-31T09:56:44;21.80;99.90
22996;DHT22;11664;49.774;8.650;2023-07-31T09:59:15;21.60;99.90
22996;DHT22;11664;49.774;8.650;2023-07-31T10:01:41;21.80;99.90
22996;DHT22;11664;49.774;8.650;2023-07-31T10:04:14;22.00;99.90
22996;DHT22;11664;49.774;8.650;2023-07-31T10:06:43;22.00;99.90
22996;DHT22;11664;49.774;8.650;2023-07-31T10:09:11;22.30;99.90
22996;DHT22;11664;49.774;8.650;2023-07-31T10:11:53;22.30;99.90
22996;DHT22;11664;49.774;8.650;2023-07-31T10:14:21;22.70;99.90
22996;DHT22;11664;49.774;8.650;2023-07-31T10:16:49;22.70;99.90
22996;DHT22;11664;49.774;8.650;2023-07-31T10:19:28;22.70;99.90
22996;DHT22;11664;49.774;8.650;2023-07-31T10:21:59;22.50;99.90
22996;DHT22;11664;49.774;8.650;2023-07-31T10:24:25;22.60;99.90
22996;DHT22;11664;49.774;8.650;2023-07-31T10:26:52;23.10;99.90
22996;DHT22;11664;49.774;8.650;2023-07-31T10:29:31;23.40;99.90
22996;DHT22;11664;49.774;8.650;2023-07-31T10:31:58;23.30;99.90
22996;DHT22;11664;49.774;8.650;2023-07-31T10:34:30;23.30;99.90
22996;DHT22;11664;49.774;8.650;2023-07-31T10:40:11;23.80;99.90
22996;DHT22;11664;49.774;8.650;2023-07-31T10:46:11;23.50;99.90
22996;DHT22;11664;49.774;8.650;2023-07-31T10:48:39;23.50;99.90
22996;DHT22;11664;49.774;8.650;2023-07-31T10:51:08;23.10;99.90
22996;DHT22;11664;49.774;8.650;2023-07-31T10:53:35;22.90;99.90
22996;DHT22;11664;49.774;8.650;2023-07-31T10:56:02;22.80;99.90
22996;DHT22;11664;49.774;8.650;2023-07-31T10:58:28;23.10;99.90
22996;DHT22;11664;49.774;8.650;2023-07-31T11:00:59;23.20;99.90
22996;DHT22;11664;49.774;8.650;2023-07-31T11:04:00;23.40;99.90
22996;DHT22;11664;49.774;8.650;2023-07-31T11:06:36;24.60;99.90
22996;DHT22;11664;49.774;8.650;2023-07-31T11:09:14;24.70;99.90
22996;DHT22;11664;49.774;8.650;2023-07-31T11:11:40;23.80;99.90
22996;DHT22;11664;49.774;8.650;2023-07-31T11:14:10;23.30;99.90
22996;DHT22;11664;49.774;8.650;2023-07-31T11:16:36;22.90;99.90
22996;DHT22;11664;49.774;8.650;2023-07-31T11:19:08;22.70;99.90
22996;DHT22;11664;49.774;8.650;2023-07-31T11:21:34;22.60;99.90
22996;DHT22;11664;49.774;8.650;2023-07-31T11:23:59;22.50;99.90
22996;DHT22;11664;49.774;8.650;2023-07-31T11:26:28;22.30;99.90
22996;DHT22;11664;49.774;8.650;2023-07-31T11:29:00;22.20;99.90
22996;DHT22;11664;49.774;8.650;2023-07-31T11:31:42;22.10;99.90
22996;DHT22;11664;49.774;8.650;2023-07-31T11:34:08;22.00;99.90
22996;DHT22;11664;49.774;8.650;2023-07-31T11:36:39;21.70;99.90
22996;DHT22;11664;49.774;8.650;2023-07-31T11:39:05;21.80;99.90
22996;DHT22;11664;49.774;8.650;2023-07-31T11:41:32;21.70;99.90
22996;DHT22;11664;49.774;8.650;2023-07-31T11:44:09;21.70;99.90
22996;DHT22;11664;49.774;8.650;2023-07-31T11:46:35;21.90;99.90
22996;DHT22;11664;49.774;8.650;2023-07-31T11:49:04;21.80;99.90
22996;DHT22;11664;49.774;8.650;2023-07-31T11:51:33;22.00;99.90
22996;DHT22;11664;49.774;8.650;2023-07-31T11:54:01;22.00;99.90
22996;DHT22;11664;49.774;8.650;2023-07-31T11:56:31;21.80;99.90
22996;DHT22;11664;49.774;8.650;2023-07-31T11:59:05;21.80;99.90
22996;DHT22;11664;49.774;8.650;2023-07-31T12:01:33;22.10;99.90
22996;DHT22;11664;49.774;8.650;2023-07-31T12:03:59;22.30;99.90
22996;DHT22;11664;49.774;8.650;2023-07-31T12:06:37;22.40;99.90
22996;DHT22;11664;49.774;8.650;2023-07-31T12:09:03;22.40;99.90
22996;DHT22;11664;49.774;8.650;2023-07-31T12:11:55;22.50;99.90
22996;DHT22;11664;49.774;8.650;2023-07-31T12:14:28;22.40;99.90
22996;DHT22;11664;49.774;8.650;2023-07-31T12:17:04;22.40;99.90
22996;DHT22;11664;49.774;8.650;2023-07-31T12:19:30;22.40;99.90
22996;DHT22;11664;49.774;8.650;2023-07-31T12:22:15;22.50;99.90
22996;DHT22;11664;49.774;8.650;2023-07-31T12:24:47;22.60;99.90
22996;DHT22;11664;49.774;8.650;2023-07-31T12:27:14;22.50;99.90
22996;DHT22;11664;49.774;8.650;2023-07-31T12:29:43;22.30;99.90
22996;DHT22;11664;49.774;8.650;2023-07-31T12:32:21;22.20;99.90
22996;DHT22;11664;49.774;8.650;2023-07-31T12:34:47;22.00;99.90
22996;DHT22;11664;49.774;8.650;2023-07-31T12:37:12;22.00;99.90
22996;DHT22;11664;49.774;8.650;2023-07-31T12:39:38;21.90;99.90
22996;DHT22;11664;49.774;8.650;2023-07-31T12:42:04;21.90;99.90
22996;DHT22;11664;49.774;8.650;2023-07-31T12:44:29;21.90;99.90
22996;DHT22;11664;49.774;8.650;2023-07-31T12:46:55;21.90;99.90
22996;DHT22;11664;49.774;8.650;2023-07-31T12:49:20;21.90;99.90
22996;DHT22;11664;49.774;8.650;2023-07-31T12:51:46;21.90;99.90
22996;DHT22;11664;49.774;8.650;2023-07-31T12:54:12;21.90;99.90
22996;DHT22;11664;49.774;8.650;2023-07-31T12:56:41;21.90;99.90
22996;DHT22;11664;49.774;8.650;2023-07-31T12:59:06;22.00;99.90
22996;DHT22;11664;49.774;8.650;2023-07-31T13:01:38;21.90;99.90
22996;DHT22;11664;49.774;8.650;2023-07-31T13:04:12;22.00;99.90
22996;DHT22;11664;49.774;8.650;2023-07-31T13:06:39;22.00;99.90
22996;DHT22;11664;49.774;8.650;2023-07-31T13:09:05;22.20;99.90
22996;DHT22;11664;49.774;8.650;2023-07-31T13:11:36;22.20;99.90
22996;DHT22;11664;49.774;8.650;2023-07-31T13:14:14;22.30;99.90
22996;DHT22;11664;49.774;8.650;2023-07-31T13:16:39;22.50;99.90
22996;DHT22;11664;49.774;8.650;2023-07-31T13:19:06;22.60;99.90
22996;DHT22;11664;49.774;8.650;2023-07-31T13:21:34;22.60;99.90
22996;DHT22;11664;49.774;8.650;2023-07-31T13:24:02;22.70;99.90
22996;DHT22;11664;49.774;8.650;2023-07-31T13:26:30;22.60;99.90
22996;DHT22;11664;49.774;8.650;2023-07-31T13:29:02;22.80;99.90
22996;DHT22;11664;49.774;8.650;2023-07-31T13:31:28;22.90;99.90
22996;DHT22;11664;49.774;8.650;2023-07-31T13:33:53;22.80;99.90
22996;DHT22;11664;49.774;8.650;2023-07-31T13:36:22;22.60;99.90
22996;DHT22;11664;49.774;8.650;2023-07-31T13:38:56;22.50;99.90
22996;DHT22;11664;49.774;8.650;2023-07-31T13:41:22;22.20;99.90
22996;DHT22;11664;49.774;8.650;2023-07-31T13:43:50;22.20;99.90
22996;DHT22;11664;49.774;8.650;2023-07-31T13:46:19;22.20;99.90
22996;DHT22;11664;49.774;8.650;2023-07-31T13:48:47;22.20;99.90
22996;DHT22;11664;49.774;8.650;2023-07-31T13:51:19;22.20;99.90
22996;DHT22;11664;49.774;8.650;2023-07-31T13:53:45;22.20;99.90
22996;DHT22;11664;49.774;8.650;2023-07-31T13:56:16;22.20;99.90
22996;DHT22;11664;49.774;8.650;2023-07-31T13:58:42;22.10;99.90
22996;DHT22;11664;49.774;8.650;2023-07-31T14:01:13;22.10;99.90
22996;DHT22;11664;49.774;8.650;2023-07-31T14:03:39;22.10;99.90
22996;DHT22;11664;49.774;8.650;2023-07-31T14:06:04;22.10;99.90
22996;DHT22;11664;49.774;8.650;2023-07-31T14:08:36;22.00;99.90
22996;DHT22;11664;49.774;8.650;2023-07-31T14:11:01;22.00;99.90
22996;DHT22;11664;49.774;8.650;2023-07-31T14:13:33;22.00;99.90
22996;DHT22;11664;49.774;8.650;2023-07-31T14:15:58;21.90;99.90
22996;DHT22;11664;49.774;8.650;2023-07-31T14:18:24;21.90;99.90
22996;DHT22;11664;49.774;8.650;2023-07-31T14:20:52;21.90;99.90
22996;DHT22;11664;49.774;8.650;2023-07-31T14:23:21;21.90;99.90
22996;DHT22;11664;49.774;8.650;2023-07-31T14:25:47;22.00;99.90
22996;DHT22;11664;49.774;8.650;2023-07-31T14:28:13;22.00;99.90
22996;DHT22;11664;49.774;8.650;2023-07-31T14:30:41;21.90;99.90
22996;DHT22;11664;49.774;8.650;2023-07-31T14:33:13;21.90;99.90
22996;DHT22;11664;49.774;8.650;2023-07-31T14:35:48;22.00;99.90
22996;DHT22;11664;49.774;8.650;2023-07-31T14:38:19;22.00;99.90
22996;DHT22;11664;49.774;8.650;2023-07-31T14:40:45;21.90;99.90
22996;DHT22;11664;49.774;8.650;2023-07-31T14:43:13;21.90;99.90
22996;DHT22;11664;49.774;8.650;2023-07-31T14:45:39;22.00;99.90
22996;DHT22;11664;49.774;8.650;2023-07-31T14:48:04;21.90;99.90
22996;DHT22;11664;49.774;8.650;2023-07-31T14:50:30;21.90;99.90
22996;DHT22;11664;49.774;8.650;2023-07-31T14:52:56;22.00;99.90
22996;DHT22;11664;49.774;8.650;2023-07-31T14:55:30;22.00;99.90
22996;DHT22;11664;49.774;8.650;2023-07-31T14:58:08;22.10;99.90
22996;DHT22;11664;49.774;8.650;2023-07-31T15:00:39;22.20;99.90
22996;DHT22;11664;49.774;8.650;2023-07-31T15:03:11;22.10;99.90
22996;DHT22;11664;49.774;8.650;2023-07-31T15:05:43;22.20;99.90
22996;DHT22;11664;49.774;8.650;2023-07-31T15:08:11;22.20;99.90
22996;DHT22;11664;49.774;8.650;2023-07-31T15:10:40;22.10;99.90
22996;DHT22;11664;49.774;8.650;2023-07-31T15:13:06;22.10;99.90
22996;DHT22;11664;49.774;8.650;2023-07-31T15:15:37;22.20;99.90
22996;DHT22;11664;49.774;8.650;2023-07-31T15:18:03;22.20;99.90
22996;DHT22;11664;49.774;8.650;2023-07-31T15:20:29;22.10;99.90
22996;DHT22;11664;49.774;8.650;2023-07-31T15:22:56;22.10;99.90
22996;DHT22;11664;49.774;8.650;2023-07-31T15:25:22;22.20;99.90
22996;DHT22;11664;49.774;8.650;2023-07-31T15:27:47;22.20;99.90
22996;DHT22;11664;49.774;8.650;2023-07-31T15:30:13;22.30;99.90
22996;DHT22;11664;49.774;8.650;2023-07-31T15:32:44;22.30;99.90
22996;DHT22;11664;49.774;8.650;2023-07-31T15:35:24;22.30;99.90
22996;DHT22;11664;49.774;8.650;2023-07-31T15:37:55;22.30;99.90
22996;DHT22;11664;49.774;8.650;2023-07-31T15:40:39;22.20;99.90
22996;DHT22;11664;49.774;8.650;2023-07-31T15:43:08;22.10;99.90
22996;DHT22;11664;49.774;8.650;2023-07-31T15:45:43;22.10;99.90
22996;DHT22;11664;49.774;8.650;2023-07-31T15:48:12;22.00;99.90
22996;DHT22;11664;49.774;8.650;2023-07-31T15:50:40;22.00;99.90
22996;DHT22;11664;49.774;8.650;2023-07-31T15:53:06;22.10;99.90
22996;DHT22;11664;49.774;8.650;2023-07-31T15:55:34;22.10;99.90
22996;DHT22;11664;49.774;8.650;2023-07-31T15:58:06;22.20;99.90
22996;DHT22;11664;49.774;8.650;2023-07-31T16:00:32;22.20;99.90